createdAt,value
2022-10-15T00:01:27.629Z,99797.84
2022-10-15T00:03:55.608Z,99794.91
2022-10-15T00:06:23.534Z,99779.91
2022-10-15T00:08:51.587Z,99771.88
2022-10-15T00:11:21.171Z,99786.72
2022-10-15T00:13:49.290Z,99791.84
2022-10-15T00:16:18.645Z,99795.75
2022-10-15T00:18:48.096Z,99795.16
2022-10-15T00:21:18.028Z,99791.03
2022-10-15T00:23:46.121Z,99796.41
2022-10-15T00:26:16.037Z,99789.41
2022-10-15T00:28:44.232Z,99788.81
2022-10-15T00:31:14.248Z,99787.34
2022-10-15T00:33:42.651Z,99792.06
2022-10-15T00:36:14.225Z,99788.59
2022-10-15T00:38:42.049Z,99791.28
2022-10-15T00:41:13.686Z,99790.44
2022-10-15T00:43:46.792Z,99789.19
2022-10-15T00:46:21.574Z,99786.53
2022-10-15T00:48:52.373Z,99782.19
2022-10-15T00:51:23.666Z,99788.38
2022-10-15T00:53:51.939Z,99788.41
2022-10-15T00:56:23.182Z,99781.81
2022-10-15T00:58:53.136Z,99772.31
2022-10-15T01:01:21.117Z,99773.16
2022-10-15T01:03:49.163Z,99766.97
2022-10-15T01:06:16.748Z,99767.78
2022-10-15T01:08:46.211Z,99762.44
2022-10-15T01:11:29.300Z,99757.94
2022-10-15T01:14:08.595Z,99769.88
2022-10-15T01:16:43.750Z,99773.56
2022-10-15T01:19:26.492Z,99763.47
2022-10-15T01:22:02.532Z,99771.50
2022-10-15T01:25:00.696Z,99777.28
2022-10-15T01:27:35.917Z,99774.59
2022-10-15T01:30:26.586Z,99776.25
2022-10-15T01:33:22.136Z,99771.72
2022-10-15T01:35:52.631Z,99768.22
2022-10-15T01:38:28.702Z,99769.44
2022-10-15T01:41:00.422Z,99769.88
2022-10-15T01:43:33.595Z,99766.56
2022-10-15T01:46:07.437Z,99774.81
2022-10-15T01:48:38.445Z,99772.13
2022-10-15T01:51:08.596Z,99761.84
2022-10-15T01:53:37.738Z,99759.56
2022-10-15T01:56:10.088Z,99760.41
2022-10-15T01:58:41.054Z,99759.56
2022-10-15T02:01:10.599Z,99758.75
2022-10-15T02:03:46.615Z,99756.91
2022-10-15T02:06:21.211Z,99756.69
2022-10-15T02:09:01.094Z,99758.94
2022-10-15T02:11:30.721Z,99755.25
2022-10-15T02:14:04.861Z,99746.41
2022-10-15T02:16:42.276Z,99742.69
2022-10-15T02:19:16.416Z,99748.69
2022-10-15T02:21:48.990Z,99756.91
2022-10-15T02:24:20.815Z,99755.88
2022-10-15T02:26:50.264Z,99761.22
2022-10-15T02:29:22.140Z,99750.91
2022-10-15T02:31:52.612Z,99759.78
2022-10-15T02:34:23.402Z,99749.69
2022-10-15T02:36:51.966Z,99761.63
2022-10-15T02:39:24.180Z,99757.72
2022-10-15T02:41:52.703Z,99756.06
2022-10-15T02:44:20.899Z,99764.09
2022-10-15T02:46:48.533Z,99764.09
2022-10-15T02:49:17.499Z,99763.91
2022-10-15T02:51:45.107Z,99772.13
2022-10-15T02:54:12.719Z,99776.66
2022-10-15T02:56:40.400Z,99774.81
2022-10-15T02:59:08.101Z,99781.41
2022-10-15T03:01:35.855Z,99764.94
2022-10-15T03:04:03.754Z,99767.84
2022-10-15T03:06:32.796Z,99757.97
2022-10-15T03:09:00.454Z,99763.31
2022-10-15T03:11:28.219Z,99756.50
2022-10-15T03:13:55.829Z,99765.38
2022-10-15T03:16:23.521Z,99776.25
2022-10-15T03:18:51.196Z,99769.50
2022-10-15T03:21:18.811Z,99761.03
2022-10-15T03:23:47.991Z,99767.41
2022-10-15T03:26:15.577Z,99762.06
2022-10-15T03:28:43.199Z,99776.06
2022-10-15T03:31:10.929Z,99775.03
2022-10-15T03:33:38.574Z,99777.31
2022-10-15T03:36:08.048Z,99779.00
2022-10-15T03:38:36.068Z,99777.56
2022-10-15T03:41:05.198Z,99781.06
2022-10-15T03:43:32.730Z,99790.94
2022-10-15T03:46:03.299Z,99789.72
2022-10-15T03:48:31.075Z,99793.03
2022-10-15T03:50:58.865Z,99797.56
2022-10-15T03:53:26.598Z,99789.91
2022-10-15T03:55:54.164Z,99799.59
2022-10-15T03:58:23.135Z,99797.56
2022-10-15T04:00:50.865Z,99800.03
2022-10-15T04:03:18.457Z,99794.44
2022-10-15T04:05:54.048Z,99799.19
2022-10-15T04:08:22.935Z,99800.44
2022-10-15T04:10:52.132Z,99799.41
2022-10-15T04:13:19.772Z,99811.97
2022-10-15T04:15:48.714Z,99803.69
2022-10-15T04:18:16.326Z,99811.50
2022-10-15T04:20:43.931Z,99813.97
2022-10-15T04:23:11.607Z,99815.59
2022-10-15T04:25:39.506Z,99816.22
2022-10-15T04:28:07.108Z,99817.25
2022-10-15T04:30:34.729Z,99812.50
2022-10-15T04:33:03.757Z,99825.28
2022-10-15T04:35:31.581Z,99836.59
2022-10-15T04:37:59.488Z,99832.47
2022-10-15T04:40:27.231Z,99823.81
2022-10-15T04:42:54.916Z,99825.88
2022-10-15T04:47:55.168Z,99823.97
2022-10-15T04:50:24.138Z,99825.00
2022-10-15T04:52:51.723Z,99830.78
2022-10-15T04:55:19.536Z,99829.97
2022-10-15T04:57:47.222Z,99831.63
2022-10-15T05:00:15.376Z,99840.03
2022-10-15T05:02:43.474Z,99840.66
2022-10-15T05:05:11.176Z,99842.97
2022-10-15T05:07:40.198Z,99846.22
2022-10-15T05:10:09.097Z,99842.13
2022-10-15T05:12:36.832Z,99841.50
2022-10-15T05:15:04.921Z,99841.50
2022-10-15T05:17:32.624Z,99846.47
2022-10-15T05:20:00.250Z,99842.34
2022-10-15T05:22:27.871Z,99851.00
2022-10-15T05:24:57.141Z,99846.69
2022-10-15T05:27:24.843Z,99855.13
2022-10-15T05:29:52.418Z,99863.75
2022-10-15T05:34:51.515Z,99864.19
2022-10-15T05:37:19.158Z,99864.19
2022-10-15T05:39:46.883Z,99870.16
2022-10-15T05:42:15.901Z,99876.75
2022-10-15T05:44:43.490Z,99883.56
2022-10-15T05:47:12.366Z,99888.31
2022-10-15T05:49:40.093Z,99897.63
2022-10-15T05:52:07.754Z,99902.56
2022-10-15T05:54:35.462Z,99898.84
2022-10-15T05:57:03.063Z,99907.50
2022-10-15T05:59:31.991Z,99903.19
2022-10-15T06:01:59.676Z,99913.06
2022-10-15T06:04:29.499Z,99918.41
2022-10-15T06:06:59.716Z,99918.84
2022-10-15T06:09:28.750Z,99930.19
2022-10-15T06:11:56.405Z,99917.41
2022-10-15T06:14:24.646Z,99919.06
2022-10-15T06:16:54.983Z,99917.22
2022-10-15T06:19:22.676Z,99924.03
2022-10-15T06:21:50.569Z,99917.00
2022-10-15T06:24:18.194Z,99922.38
2022-10-15T06:26:45.815Z,99918.03
2022-10-15T06:29:13.585Z,99925.88
2022-10-15T06:31:41.171Z,99925.25
2022-10-15T06:34:10.090Z,99945.25
2022-10-15T06:36:38.715Z,99941.75
2022-10-15T06:39:06.335Z,99954.13
2022-10-15T06:41:33.899Z,99953.09
2022-10-15T06:44:01.547Z,99945.06
2022-10-15T06:46:29.143Z,99948.56
2022-10-15T06:48:56.725Z,99958.22
2022-10-15T06:51:25.778Z,99960.69
2022-10-15T06:53:53.360Z,99960.31
2022-10-15T06:56:21.038Z,99958.66
2022-10-15T06:58:48.647Z,99968.97
2022-10-15T07:01:17.122Z,99966.50
2022-10-15T07:03:44.721Z,99959.03
2022-10-15T07:06:12.408Z,99959.47
2022-10-15T07:08:41.493Z,99970.56
2022-10-15T07:11:10.084Z,99977.56
2022-10-15T07:13:38.264Z,99977.56
2022-10-15T07:16:06.857Z,99987.91
2022-10-15T07:18:34.873Z,99993.25
2022-10-15T07:21:02.676Z,99985.63
2022-10-15T07:23:30.351Z,99986.25
2022-10-15T07:25:59.970Z,99986.66
2022-10-15T07:28:28.590Z,99987.47
2022-10-15T07:30:56.466Z,99987.72
2022-10-15T07:33:24.075Z,99986.25
2022-10-15T07:35:51.730Z,99983.38
2022-10-15T07:38:19.318Z,99986.66
2022-10-15T07:40:46.876Z,99995.75
2022-10-15T07:43:16.705Z,100005.22
2022-10-15T07:45:48.615Z,100002.75
2022-10-15T07:48:16.351Z,100004.00
2022-10-15T07:50:44.254Z,100002.16
2022-10-15T07:53:11.941Z,100002.78
2022-10-15T07:55:39.538Z,100002.78
2022-10-15T07:58:08.425Z,99997.22
2022-10-15T08:00:37.387Z,100012.69
2022-10-15T08:03:05.078Z,100014.34
2022-10-15T08:05:32.883Z,100004.88
2022-10-15T08:08:00.518Z,100012.31
2022-10-15T08:10:28.405Z,100020.97
2022-10-15T08:12:58.871Z,100017.28
2022-10-15T08:15:26.411Z,100014.38
2022-10-15T08:17:55.376Z,100017.28
2022-10-15T08:20:23.088Z,100013.56
2022-10-15T08:22:50.776Z,100026.53
2022-10-15T08:25:18.524Z,100020.59
2022-10-15T08:27:46.135Z,100028.63
2022-10-15T08:30:13.950Z,100024.31
2022-10-15T08:32:41.533Z,100025.13
2022-10-15T08:35:10.978Z,100026.78
2022-10-15T08:37:38.680Z,100025.16
2022-10-15T08:40:07.849Z,100023.34
2022-10-15T08:42:39.298Z,100021.50
2022-10-15T08:45:13.385Z,100019.44
2022-10-15T08:47:46.868Z,100014.50
2022-10-15T08:50:26.818Z,100019.59
2022-10-15T08:52:56.344Z,100019.84
2022-10-15T08:58:03.344Z,100006.50
2022-10-15T09:00:36.472Z,100012.56
2022-10-15T09:03:10.883Z,100017.31
2022-10-15T09:05:47.831Z,100014.59
2022-10-15T09:08:27.170Z,100022.13
2022-10-15T09:11:00.722Z,100017.38
2022-10-15T09:13:32.691Z,100015.94
2022-10-15T09:16:04.749Z,100020.19
2022-10-15T09:18:34.717Z,100023.78
2022-10-15T09:21:06.399Z,100022.28
2022-10-15T09:23:35.383Z,100028.59
2022-10-15T09:26:08.294Z,100024.16
2022-10-15T09:28:43.619Z,100023.34
2022-10-15T09:31:15.887Z,100028.38
2022-10-15T09:33:49.177Z,100024.72
2022-10-15T09:36:30.649Z,100021.41
2022-10-15T09:39:07.763Z,100021.03
2022-10-15T09:41:45.288Z,100020.41
2022-10-15T09:44:17.410Z,100024.56
2022-10-15T09:46:48.507Z,100029.09
2022-10-15T09:49:19.827Z,100039.00
2022-10-15T09:51:58.830Z,100032.22
2022-10-15T09:54:36.698Z,100029.72
2022-10-15T09:57:04.371Z,100043.56
2022-10-15T10:02:18.552Z,100029.72
2022-10-15T10:04:46.233Z,100045.81
2022-10-15T10:07:30.671Z,100038.81
2022-10-15T10:10:00.959Z,100044.16
2022-10-15T10:12:30.979Z,100043.34
2022-10-15T10:15:00.805Z,100040.66
2022-10-15T10:17:29.740Z,100042.09
2022-10-15T10:20:14.428Z,100040.44
2022-10-15T10:22:51.291Z,100046.03
2022-10-15T10:25:38.157Z,100045.44
2022-10-15T10:28:16.229Z,100052.66
2022-10-15T10:30:56.332Z,100052.66
2022-10-15T10:33:30.528Z,100049.34
2022-10-15T10:35:58.777Z,100051.59
2022-10-15T10:38:30.545Z,100056.75
2022-10-15T10:41:05.535Z,100058.63
2022-10-15T10:43:39.051Z,100047.28
2022-10-15T10:46:18.670Z,100037.53
2022-10-15T10:48:48.402Z,100034.47
2022-10-15T10:51:19.425Z,100023.84
2022-10-15T10:53:53.887Z,100021.75
2022-10-15T10:56:25.347Z,100018.34
2022-10-15T10:58:58.912Z,100030.38
2022-10-15T11:01:26.578Z,100031.03
2022-10-15T11:03:54.269Z,100020.53
2022-10-15T11:06:30.118Z,100019.72
2022-10-15T11:09:09.480Z,100027.38
2022-10-15T11:11:47.049Z,100030.28
2022-10-15T11:14:22.443Z,100026.38
2022-10-15T11:16:58.143Z,100022.25
2022-10-15T11:22:38.346Z,100017.25
2022-10-15T11:25:20.050Z,100012.25
2022-10-15T11:28:02.307Z,100019.25
2022-10-15T11:30:44.862Z,100011.84
2022-10-15T11:33:32.384Z,100010.00
2022-10-15T11:36:11.635Z,100014.31
2022-10-15T11:38:45.400Z,100012.94
2022-10-15T11:41:30.407Z,100006.00
2022-10-15T11:44:22.956Z,100001.16
2022-10-15T11:47:01.946Z,100002.75
2022-10-15T11:49:42.298Z,99992.19
2022-10-15T11:52:28.322Z,99990.13
2022-10-15T11:55:05.074Z,99997.84
2022-10-15T11:57:36.591Z,99989.84
2022-10-15T12:00:15.046Z,99989.91
2022-10-15T12:02:42.790Z,99985.16
2022-10-15T12:05:15.621Z,99984.53
2022-10-15T12:07:45.240Z,99977.88
2022-10-15T12:10:31.000Z,99980.78
2022-10-15T12:13:06.224Z,99978.50
2022-10-15T12:15:40.775Z,99981.78
2022-10-15T12:18:20.925Z,99977.00
2022-10-15T12:20:48.732Z,99967.22
2022-10-15T12:23:39.951Z,99966.09
2022-10-15T12:26:28.873Z,99969.63
2022-10-15T12:29:02.236Z,99965.03
2022-10-15T12:31:46.873Z,99970.88
2022-10-15T12:34:28.922Z,99971.38
2022-10-15T12:37:09.242Z,99967.56
2022-10-15T12:39:58.540Z,99966.31
2022-10-15T12:42:30.003Z,99961.00
2022-10-15T12:45:02.765Z,99959.66
2022-10-15T12:47:51.663Z,99952.03
2022-10-15T12:50:21.863Z,99948.31
2022-10-15T12:53:02.591Z,99949.16
2022-10-15T12:55:32.989Z,99951.91
2022-10-15T12:58:16.431Z,99951.56
2022-10-15T13:00:45.594Z,99953.19
2022-10-15T13:03:28.621Z,99950.50
2022-10-15T13:05:56.327Z,99944.38
2022-10-15T13:08:27.125Z,99939.97
2022-10-15T13:10:56.901Z,99936.88
2022-10-15T13:13:29.192Z,99938.94
2022-10-15T13:16:00.725Z,99938.53
2022-10-15T13:18:31.914Z,99930.53
2022-10-15T13:23:35.173Z,99942.59
2022-10-15T13:26:17.120Z,99949.25
2022-10-15T13:28:45.600Z,99950.88
2022-10-15T13:31:26.096Z,99948.84
2022-10-15T13:34:01.147Z,99942.25
2022-10-15T13:36:31.923Z,99941.44
2022-10-15T13:39:01.602Z,99939.78
2022-10-15T13:41:32.390Z,99950.09
2022-10-15T13:44:02.417Z,99954.72
2022-10-15T13:46:33.980Z,99953.44
2022-10-15T13:49:04.054Z,99963.75
2022-10-15T13:51:35.792Z,99968.13
2022-10-15T13:54:09.290Z,99976.38
2022-10-15T13:56:37.490Z,99954.06
2022-10-15T13:59:05.882Z,99947.28
2022-10-15T14:01:36.864Z,99955.75
2022-10-15T14:04:05.079Z,99957.84
2022-10-15T14:06:33.952Z,99971.25
2022-10-15T14:09:12.204Z,99962.38
2022-10-15T14:11:40.068Z,99967.75
2022-10-15T14:14:29.493Z,99964.00
2022-10-15T14:17:00.274Z,99953.38
2022-10-15T14:19:30.684Z,99964.97
2022-10-15T14:21:59.288Z,99976.31
2022-10-15T14:24:34.026Z,99979.38
2022-10-15T14:27:07.640Z,99979.00
2022-10-15T14:29:39.878Z,99965.78
2022-10-15T14:32:26.877Z,99968.06
2022-10-15T14:34:55.978Z,99970.53
2022-10-15T14:37:41.275Z,99976.94
2022-10-15T14:40:19.224Z,99976.75
2022-10-15T14:42:49.087Z,99983.59
2022-10-15T14:45:24.890Z,99986.56
2022-10-15T14:47:57.108Z,99991.34
2022-10-15T14:50:26.925Z,99996.47
2022-10-15T14:52:56.205Z,99995.06
2022-10-15T14:55:33.510Z,99999.00
2022-10-15T14:58:03.254Z,99996.97
2022-10-15T15:00:34.391Z,99996.16
2022-10-15T15:03:07.198Z,99995.34
2022-10-15T15:05:46.050Z,99989.59
2022-10-15T15:08:14.003Z,100003.25
2022-10-15T15:10:42.807Z,100011.75
2022-10-15T15:13:12.379Z,100012.34
2022-10-15T15:15:41.941Z,100012.34
2022-10-15T15:18:11.935Z,100006.78
2022-10-15T15:20:40.788Z,99999.53
2022-10-15T15:23:11.493Z,99999.53
2022-10-15T15:25:40.955Z,100001.59
2022-10-15T15:28:14.348Z,99997.91
2022-10-15T15:30:43.688Z,100004.09
2022-10-15T15:33:15.659Z,100000.56
2022-10-15T15:35:50.803Z,100002.22
2022-10-15T15:38:19.077Z,100001.19
2022-10-15T15:40:46.886Z,100003.47
2022-10-15T15:43:16.983Z,99998.31
2022-10-15T15:45:45.319Z,100004.91
2022-10-15T15:48:14.392Z,99991.28
2022-10-15T15:50:42.157Z,100002.03
2022-10-15T15:53:12.597Z,100001.44
2022-10-15T15:55:40.399Z,99996.66
2022-10-15T15:58:08.245Z,100006.56
2022-10-15T16:00:35.877Z,100010.06
2022-10-15T16:03:03.464Z,100021.88
2022-10-15T16:05:32.489Z,100018.56
2022-10-15T16:08:00.117Z,100018.34
2022-10-15T16:10:27.681Z,100017.97
2022-10-15T16:12:56.237Z,100016.53
2022-10-15T16:15:23.815Z,100029.72
2022-10-15T16:17:51.379Z,100024.75
2022-10-15T16:20:19.373Z,100044.19
2022-10-15T16:22:52.003Z,100040.88
2022-10-15T16:25:20.282Z,100049.56
2022-10-15T16:27:49.190Z,100044.81
2022-10-15T16:30:17.027Z,100035.72
2022-10-15T16:32:44.668Z,100042.75
2022-10-15T16:35:12.280Z,100038.84
2022-10-15T16:37:39.923Z,100043.38
2022-10-15T16:40:10.237Z,100041.31
2022-10-15T16:42:38.176Z,100046.66
2022-10-15T16:45:06.459Z,100051.63
2022-10-15T16:47:34.192Z,100047.91
2022-10-15T16:50:02.556Z,100059.50
2022-10-15T16:52:30.258Z,100061.13
2022-10-15T16:54:58.026Z,100054.94
2022-10-15T16:57:27.453Z,100066.06
2022-10-15T16:59:55.167Z,100061.97
2022-10-15T17:02:23.136Z,100067.31
2022-10-15T17:04:50.895Z,100061.34
2022-10-15T17:07:18.537Z,100078.06
2022-10-15T17:09:51.157Z,100078.06
2022-10-15T17:12:18.863Z,100089.19
2022-10-15T17:14:50.650Z,100082.59
2022-10-15T17:17:18.272Z,100091.88
2022-10-15T17:19:45.847Z,100097.03
2022-10-15T17:22:13.572Z,100093.31
2022-10-15T17:24:41.245Z,100104.25
2022-10-15T17:27:08.870Z,100107.38
2022-10-15T17:29:36.561Z,100099.72
2022-10-15T17:32:05.658Z,100093.31
2022-10-15T17:34:33.460Z,100103.88
2022-10-15T17:37:02.012Z,100094.56
2022-10-15T17:39:29.642Z,100101.97
2022-10-15T17:41:57.649Z,100114.38
2022-10-15T17:44:25.263Z,100119.94
2022-10-15T17:46:53.926Z,100120.56
2022-10-15T17:49:22.934Z,100114.38
2022-10-15T17:51:51.502Z,100121.41
2022-10-15T17:54:19.556Z,100117.88
2022-10-15T17:56:48.498Z,100126.13
2022-10-15T17:59:16.078Z,100130.91
2022-10-15T18:02:01.104Z,100129.06
2022-10-15T18:04:30.715Z,100127.59
2022-10-15T18:06:58.479Z,100130.72
2022-10-15T18:09:26.643Z,100137.94
2022-10-15T18:11:54.385Z,100128.03
2022-10-15T18:14:22.104Z,100134.41
2022-10-15T18:16:49.887Z,100135.84
2022-10-15T18:19:17.549Z,100134.19
2022-10-15T18:21:49.510Z,100140.41
2022-10-15T18:24:19.911Z,100147.00
2022-10-15T18:26:47.868Z,100150.72
2022-10-15T18:29:15.531Z,100162.50
2022-10-15T18:31:43.154Z,100169.09
2022-10-15T18:34:10.855Z,100164.34
2022-10-15T18:36:41.509Z,100163.31
2022-10-15T18:39:11.147Z,100163.91
2022-10-15T18:41:39.958Z,100160.22
2022-10-15T18:44:12.466Z,100174.25
2022-10-15T18:46:42.087Z,100158.56
2022-10-15T18:49:09.720Z,100170.31
2022-10-15T18:51:37.674Z,100168.25
2022-10-15T18:54:06.010Z,100151.97
2022-10-15T18:56:35.046Z,100163.91
2022-10-15T18:59:02.689Z,100165.97
2022-10-15T19:01:33.764Z,100164.94
2022-10-15T19:04:03.874Z,100173.41
2022-10-15T19:06:35.434Z,100168.88
2022-10-15T19:09:04.962Z,100173.63
2022-10-15T19:11:32.982Z,100170.50
2022-10-15T19:14:02.195Z,100169.47
2022-10-15T19:16:29.967Z,100168.44
2022-10-15T19:18:58.214Z,100175.47
2022-10-15T19:21:25.774Z,100176.06
2022-10-15T19:23:53.764Z,100175.88
2022-10-15T19:26:21.362Z,100176.91
2022-10-15T19:28:51.790Z,100178.56
2022-10-15T19:31:26.426Z,100183.53
2022-10-15T19:33:55.674Z,100191.16
2022-10-15T19:36:24.065Z,100194.06
2022-10-15T19:38:51.833Z,100200.03
2022-10-15T19:41:20.273Z,100191.38
2022-10-15T19:43:49.582Z,100183.34
2022-10-15T19:46:17.178Z,100202.31
2022-10-15T19:48:46.588Z,100216.75
2022-10-15T19:51:14.447Z,100230.75
2022-10-15T19:53:42.632Z,100216.56
2022-10-15T19:56:12.196Z,100219.81
2022-10-15T19:58:40.228Z,100223.72
2022-10-15T20:01:07.867Z,100219.63
2022-10-15T20:03:38.501Z,100224.16
2022-10-15T20:06:09.045Z,100228.25
2022-10-15T20:08:37.225Z,100230.72
2022-10-15T20:11:06.695Z,100227.78
2022-10-15T20:13:35.105Z,100228.63
2022-10-15T20:16:04.962Z,100230.91
2022-10-15T20:18:32.850Z,100235.63
2022-10-15T20:21:00.551Z,100251.53
2022-10-15T20:23:29.480Z,100252.34
2022-10-15T20:25:57.049Z,100251.28
2022-10-15T20:28:25.386Z,100245.13
2022-10-15T20:33:27.869Z,100231.66
2022-10-15T20:35:55.486Z,100241.78
2022-10-15T20:38:23.019Z,100237.03
2022-10-15T20:40:52.006Z,100238.50
2022-10-15T20:43:21.827Z,100242.00
2022-10-15T20:45:49.464Z,100245.09
2022-10-15T20:48:22.240Z,100239.91
2022-10-15T20:50:50.640Z,100252.44
2022-10-15T20:53:20.000Z,100254.50
2022-10-15T20:55:47.689Z,100255.78
2022-10-15T20:58:16.733Z,100261.50
2022-10-15T21:00:44.579Z,100261.09
2022-10-15T21:03:12.183Z,100263.75
2022-10-15T21:05:39.885Z,100263.13
2022-10-15T21:08:07.562Z,100257.13
2022-10-15T21:10:35.244Z,100256.13
2022-10-15T21:13:03.097Z,100256.13
2022-10-15T21:15:32.026Z,100265.44
2022-10-15T21:17:59.855Z,100268.50
2022-10-15T21:20:27.667Z,100274.69
2022-10-15T21:22:55.307Z,100263.13
2022-10-15T21:25:23.026Z,100269.91
2022-10-15T21:27:50.650Z,100263.75
2022-10-15T21:30:18.662Z,100270.13
2022-10-15T21:32:47.639Z,100283.72
2022-10-15T21:35:15.411Z,100285.38
2022-10-15T21:37:43.012Z,100284.56
2022-10-15T21:40:15.114Z,100295.28
2022-10-15T21:42:42.721Z,100297.31
2022-10-15T21:45:11.223Z,100291.16
2022-10-15T21:47:38.896Z,100288.66
2022-10-15T21:50:08.469Z,100289.50
2022-10-15T21:52:36.213Z,100289.91
2022-10-15T21:55:04.389Z,100298.59
2022-10-15T21:57:32.580Z,100307.44
2022-10-15T22:00:00.270Z,100305.59
2022-10-15T22:02:27.909Z,100303.97
2022-10-15T22:04:55.553Z,100299.38
2022-10-15T22:07:25.004Z,100295.06
2022-10-15T22:09:52.881Z,100292.41
2022-10-15T22:12:21.306Z,100293.81
2022-10-15T22:14:49.044Z,100300.63
2022-10-15T22:17:16.705Z,100304.72
2022-10-15T22:19:44.314Z,100308.88
2022-10-15T22:22:11.922Z,100301.47
2022-10-15T22:24:41.305Z,100301.84
2022-10-15T22:27:09.219Z,100307.84
2022-10-15T22:29:36.858Z,100300.38
2022-10-15T22:32:04.692Z,100310.06
2022-10-15T22:34:32.281Z,100300.59
2022-10-15T22:36:59.884Z,100304.06
2022-10-15T22:39:27.576Z,100308.22
2022-10-15T22:41:56.537Z,100303.50
2022-10-15T22:44:24.302Z,100315.63
2022-10-15T22:46:51.981Z,100310.50
2022-10-15T22:49:22.061Z,100305.53
2022-10-15T22:51:50.751Z,100307.59
2022-10-15T22:54:20.568Z,100309.25
2022-10-15T22:56:48.177Z,100307.00
2022-10-15T22:59:17.734Z,100311.31
2022-10-15T23:01:46.130Z,100310.91
2022-10-15T23:04:15.325Z,100308.47
2022-10-15T23:06:43.545Z,100315.69
2022-10-15T23:09:17.252Z,100313.84
2022-10-15T23:11:45.772Z,100317.13
2022-10-15T23:14:16.268Z,100331.13
2022-10-15T23:16:47.042Z,100336.31
2022-10-15T23:19:19.534Z,100337.72
2022-10-15T23:21:48.914Z,100338.34
2022-10-15T23:24:17.886Z,100338.34
2022-10-15T23:26:45.835Z,100327.03
2022-10-15T23:29:16.071Z,100326.59
2022-10-15T23:31:45.907Z,100329.66
2022-10-15T23:34:16.294Z,100334.38
2022-10-15T23:36:44.443Z,100327.41
2022-10-15T23:39:15.326Z,100327.41
2022-10-15T23:41:43.448Z,100329.03
2022-10-15T23:44:11.358Z,100328.66
2022-10-15T23:46:39.210Z,100317.72
2022-10-15T23:49:08.750Z,100343.06
2022-10-15T23:51:37.087Z,100347.59
2022-10-15T23:54:10.946Z,100355.44
2022-10-15T23:56:38.662Z,100348.69
2022-10-15T23:59:06.287Z,100347.59
